createdAt,value
2018-07-08T00:01:34.829Z,60.10
2018-07-08T00:04:03.509Z,60.30
2018-07-08T00:06:32.098Z,60.60
2018-07-08T00:09:00.641Z,61.00
2018-07-08T00:11:29.280Z,61.50
2018-07-08T00:13:57.944Z,61.60
2018-07-08T00:16:27.761Z,60.60
2018-07-08T00:18:56.912Z,60.50
2018-07-08T00:21:25.508Z,60.20
2018-07-08T00:23:53.968Z,60.30
2018-07-08T00:26:22.701Z,60.60
2018-07-08T00:28:51.204Z,61.00
2018-07-08T00:31:19.677Z,61.10
2018-07-08T00:36:16.345Z,61.20
2018-07-08T00:38:44.833Z,61.40
2018-07-08T00:41:13.300Z,60.80
2018-07-08T00:43:41.802Z,60.40
2018-07-08T00:46:10.249Z,60.40
2018-07-08T00:48:38.760Z,61.00
2018-07-08T00:51:07.369Z,61.50
2018-07-08T00:53:35.880Z,60.90
2018-07-08T00:56:04.421Z,60.90
2018-07-08T00:58:32.909Z,60.80
2018-07-08T01:01:01.437Z,60.90
2018-07-08T01:03:29.940Z,61.30
2018-07-08T01:05:58.401Z,61.70
2018-07-08T01:08:26.951Z,61.70
2018-07-08T01:10:55.462Z,61.90
2018-07-08T01:13:24.079Z,61.80
2018-07-08T01:15:52.584Z,61.70
2018-07-08T01:18:21.073Z,60.90
2018-07-08T01:20:49.548Z,61.20
2018-07-08T01:23:18.904Z,61.20
2018-07-08T01:25:58.680Z,61.10
2018-07-08T01:30:55.341Z,61.00
2018-07-08T01:33:23.913Z,61.00
2018-07-08T01:35:52.361Z,61.20
2018-07-08T01:38:20.864Z,62.20
2018-07-08T01:40:49.328Z,62.10
2018-07-08T01:43:17.933Z,62.00
2018-07-08T01:45:46.444Z,62.00
2018-07-08T01:48:14.949Z,61.80
2018-07-08T01:50:43.417Z,62.00
2018-07-08T01:53:11.993Z,61.80
2018-07-08T01:55:40.461Z,62.00
2018-07-08T01:58:08.929Z,61.20
2018-07-08T02:00:37.512Z,62.10
2018-07-08T02:03:06.385Z,62.20
2018-07-08T02:05:35.045Z,62.90
2018-07-08T02:08:03.585Z,62.10
2018-07-08T02:10:32.102Z,61.70
2018-07-08T02:13:00.615Z,61.30
2018-07-08T02:15:29.621Z,61.30
2018-07-08T02:17:58.349Z,61.40
2018-07-08T02:20:27.133Z,61.50
2018-07-08T02:22:55.784Z,61.80
2018-07-08T02:25:24.242Z,62.20
2018-07-08T02:27:52.741Z,63.10
2018-07-08T02:30:21.314Z,62.40
2018-07-08T02:32:49.761Z,62.10
2018-07-08T02:35:18.257Z,62.30
2018-07-08T02:37:46.902Z,62.10
2018-07-08T02:40:15.507Z,62.30
2018-07-08T02:42:44.132Z,63.10
2018-07-08T02:45:12.658Z,64.10
2018-07-08T02:47:41.173Z,65.10
2018-07-08T02:50:09.605Z,65.60
2018-07-08T02:52:38.231Z,66.10
2018-07-08T02:55:06.777Z,66.50
2018-07-08T02:57:35.220Z,66.40
2018-07-08T03:00:03.851Z,66.70
2018-07-08T03:02:32.333Z,66.90
2018-07-08T03:05:00.849Z,66.90
2018-07-08T03:07:29.316Z,66.00
2018-07-08T03:12:26.049Z,66.40
2018-07-08T03:14:54.612Z,66.60
2018-07-08T03:17:23.073Z,65.80
2018-07-08T03:19:51.565Z,65.30
2018-07-08T03:22:20.105Z,65.30
2018-07-08T03:24:48.568Z,64.60
2018-07-08T03:27:17.008Z,64.20
2018-07-08T03:29:45.465Z,63.70
2018-07-08T03:32:13.997Z,63.40
2018-07-08T03:34:42.457Z,63.70
2018-07-08T03:37:11.013Z,63.60
2018-07-08T03:39:39.492Z,63.70
2018-07-08T03:42:07.932Z,64.00
2018-07-08T03:44:36.401Z,64.20
2018-07-08T03:47:04.909Z,62.90
2018-07-08T03:49:33.560Z,63.70
2018-07-08T03:52:02.063Z,63.80
2018-07-08T03:54:32.680Z,63.30
2018-07-08T03:57:01.161Z,63.30
2018-07-08T03:59:29.631Z,64.10
2018-07-08T04:01:58.236Z,64.00
2018-07-08T04:04:26.689Z,62.60
2018-07-08T04:06:56.133Z,62.70
2018-07-08T04:09:25.608Z,62.90
2018-07-08T04:11:54.131Z,62.50
2018-07-08T04:14:22.705Z,62.80
2018-07-08T04:16:51.138Z,62.30
2018-07-08T04:19:19.605Z,63.70
2018-07-08T04:21:48.598Z,63.80
2018-07-08T04:24:17.225Z,63.10
2018-07-08T04:26:45.700Z,61.70
2018-07-08T04:29:14.173Z,61.30
2018-07-08T04:31:42.646Z,61.90
2018-07-08T04:34:11.182Z,62.10
2018-07-08T04:36:39.642Z,62.00
2018-07-08T04:39:09.060Z,61.60
2018-07-08T04:41:37.517Z,61.80
2018-07-08T04:44:06.145Z,61.80
2018-07-08T04:46:34.634Z,61.50
2018-07-08T04:49:03.241Z,61.30
2018-07-08T04:51:31.778Z,60.60
2018-07-08T04:54:00.243Z,61.50
2018-07-08T04:56:28.821Z,61.30
2018-07-08T04:58:57.285Z,59.50
2018-07-08T05:01:25.794Z,58.90
2018-07-08T05:03:54.260Z,60.70
2018-07-08T05:06:22.760Z,61.20
2018-07-08T05:08:51.165Z,60.90
2018-07-08T05:11:19.637Z,60.50
2018-07-08T05:13:48.290Z,60.70
2018-07-08T05:16:16.888Z,60.30
2018-07-08T05:18:45.468Z,60.30
2018-07-08T05:21:14.074Z,60.30
2018-07-08T05:23:42.629Z,61.20
2018-07-08T05:26:11.123Z,60.30
2018-07-08T05:28:39.637Z,60.90
2018-07-08T05:31:08.353Z,58.90
2018-07-08T05:33:36.847Z,56.70
2018-07-08T05:36:05.535Z,56.90
2018-07-08T05:38:34.034Z,59.80
2018-07-08T05:41:02.980Z,58.70
2018-07-08T05:43:31.458Z,54.50
2018-07-08T05:46:00.424Z,53.30
2018-07-08T05:50:57.122Z,54.40
2018-07-08T05:53:25.603Z,54.50
2018-07-08T05:55:54.081Z,55.30
2018-07-08T05:58:22.544Z,55.20
2018-07-08T06:00:52.897Z,57.30
2018-07-08T06:03:21.429Z,53.00
2018-07-08T06:05:50.038Z,54.30
2018-07-08T06:08:18.503Z,52.50
2018-07-08T06:10:46.965Z,50.00
2018-07-08T06:13:15.515Z,49.20
2018-07-08T06:15:44.077Z,49.90
2018-07-08T06:18:12.608Z,49.80
2018-07-08T06:20:41.237Z,50.30
2018-07-08T06:25:38.228Z,47.30
2018-07-08T06:28:07.140Z,46.20
2018-07-08T06:30:35.594Z,45.60
2018-07-08T06:33:04.105Z,46.60
2018-07-08T06:35:32.625Z,45.20
2018-07-08T06:38:01.213Z,45.30
2018-07-08T06:40:29.754Z,45.30
2018-07-08T06:42:58.214Z,45.90
2018-07-08T06:45:26.718Z,47.00
2018-07-08T06:47:55.180Z,47.00
2018-07-08T06:50:23.796Z,45.20
2018-07-08T06:52:52.325Z,44.20
2018-07-08T06:55:21.240Z,44.70
2018-07-08T06:57:49.781Z,45.80
2018-07-08T07:00:18.675Z,45.20
2018-07-08T07:02:48.211Z,45.80
2018-07-08T07:05:16.717Z,43.80
2018-07-08T07:07:45.837Z,43.30
2018-07-08T07:10:14.346Z,44.70
2018-07-08T07:12:43.040Z,42.00
2018-07-08T07:15:11.542Z,40.80
2018-07-08T07:17:40.054Z,42.50
2018-07-08T07:20:08.558Z,43.00
2018-07-08T07:22:37.773Z,42.50
2018-07-08T07:25:06.847Z,43.10
2018-07-08T07:27:35.333Z,44.60
2018-07-08T07:30:03.884Z,42.90
2018-07-08T07:32:32.374Z,42.50
2018-07-08T07:35:01.418Z,41.70
2018-07-08T07:37:30.025Z,41.70
2018-07-08T07:39:58.443Z,40.90
2018-07-08T07:42:27.060Z,43.20
2018-07-08T07:44:55.632Z,41.30
2018-07-08T07:47:24.882Z,43.50
2018-07-08T07:49:53.560Z,44.00
2018-07-08T07:52:22.118Z,41.60
2018-07-08T07:54:51.598Z,42.40
2018-07-08T07:57:20.677Z,43.20
2018-07-08T07:59:49.381Z,43.20
2018-07-08T08:02:17.878Z,42.70
2018-07-08T08:04:47.010Z,43.30
2018-07-08T08:07:16.485Z,41.70
2018-07-08T08:09:45.783Z,43.00
2018-07-08T08:12:14.354Z,43.10
2018-07-08T08:14:43.285Z,41.30
2018-07-08T08:17:11.800Z,43.00
2018-07-08T08:19:40.268Z,43.40
2018-07-08T08:22:08.756Z,42.20
2018-07-08T08:24:37.254Z,43.10
2018-07-08T08:27:05.786Z,40.70
2018-07-08T08:29:34.259Z,42.10
2018-07-08T08:32:03.529Z,42.30
2018-07-08T08:34:55.727Z,43.10
2018-07-08T08:37:25.601Z,40.40
2018-07-08T08:39:54.602Z,41.20
2018-07-08T08:42:23.201Z,41.60
2018-07-08T08:44:53.416Z,41.20
2018-07-08T08:49:51.431Z,42.50
2018-07-08T08:52:20.210Z,43.10
2018-07-08T08:54:49.000Z,42.30
2018-07-08T08:57:17.542Z,43.40
2018-07-08T08:59:47.311Z,44.10
2018-07-08T09:02:15.859Z,41.70
2018-07-08T09:04:44.985Z,43.20
2018-07-08T09:07:15.150Z,44.30
2018-07-08T09:09:43.808Z,43.20
2018-07-08T09:12:13.262Z,42.10
2018-07-08T09:14:42.363Z,42.70
2018-07-08T09:17:12.144Z,43.80
2018-07-08T09:19:40.884Z,42.50
2018-07-08T09:22:10.354Z,43.80
2018-07-08T09:24:39.166Z,40.60
2018-07-08T09:27:07.837Z,42.90
2018-07-08T09:29:36.445Z,42.30
2018-07-08T09:32:04.926Z,42.00
2018-07-08T09:34:33.452Z,42.30
2018-07-08T09:37:01.983Z,42.80
2018-07-08T09:39:31.215Z,43.20
2018-07-08T09:41:59.752Z,44.70
2018-07-08T09:44:29.559Z,43.40
2018-07-08T09:46:58.147Z,43.40
2018-07-08T09:49:26.716Z,43.60
2018-07-08T09:51:55.263Z,42.80
2018-07-08T09:54:23.893Z,42.70
2018-07-08T09:56:52.563Z,42.80
2018-07-08T09:59:21.063Z,42.90
2018-07-08T10:01:50.581Z,41.70
2018-07-08T10:04:20.485Z,43.20
2018-07-08T10:06:49.805Z,42.20
2018-07-08T10:09:20.482Z,43.90
2018-07-08T10:11:49.054Z,43.60
2018-07-08T10:14:18.815Z,42.70
2018-07-08T10:16:47.425Z,42.90
2018-07-08T10:19:17.259Z,42.90
2018-07-08T10:21:45.754Z,43.60
2018-07-08T10:24:14.329Z,43.20
2018-07-08T10:26:44.165Z,43.60
2018-07-08T10:29:15.437Z,43.60
2018-07-08T10:31:49.186Z,44.10
2018-07-08T10:34:18.060Z,44.00
2018-07-08T10:36:46.828Z,43.50
2018-07-08T10:39:16.385Z,44.40
2018-07-08T10:41:44.968Z,43.90
2018-07-08T10:44:14.154Z,45.10
2018-07-08T10:46:43.298Z,41.90
2018-07-08T10:49:11.856Z,42.90
2018-07-08T10:51:40.455Z,44.00
2018-07-08T10:54:09.293Z,44.10
2018-07-08T10:56:38.538Z,43.70
2018-07-08T10:59:07.229Z,43.20
2018-07-08T11:01:35.793Z,44.50
2018-07-08T11:04:04.381Z,44.50
2018-07-08T11:06:33.359Z,45.50
2018-07-08T11:09:01.963Z,44.00
2018-07-08T11:11:30.492Z,43.40
2018-07-08T11:13:59.054Z,42.90
2018-07-08T11:16:28.481Z,43.40
2018-07-08T11:18:57.017Z,43.70
2018-07-08T11:21:25.626Z,44.90
2018-07-08T11:23:54.102Z,42.60
2018-07-08T11:26:22.644Z,43.60
2018-07-08T11:31:20.013Z,42.90
2018-07-08T11:36:17.177Z,43.60
2018-07-08T11:38:45.793Z,43.00
2018-07-08T11:41:14.858Z,44.30
2018-07-08T11:46:12.216Z,43.40
2018-07-08T11:48:40.774Z,44.70
2018-07-08T11:51:09.241Z,46.10
2018-07-08T11:53:37.769Z,41.60
2018-07-08T11:56:06.320Z,43.00
2018-07-08T11:58:35.373Z,41.60
2018-07-08T12:01:04.465Z,44.00
2018-07-08T12:03:33.000Z,44.70
2018-07-08T12:06:01.625Z,44.50
2018-07-08T12:08:30.308Z,45.50
2018-07-08T12:13:27.113Z,44.00
2018-07-08T12:15:55.653Z,42.90
2018-07-08T12:18:24.123Z,41.30
2018-07-08T12:20:52.621Z,43.00
2018-07-08T12:25:49.477Z,44.00
2018-07-08T12:33:14.619Z,43.60
2018-07-08T12:35:43.104Z,42.40
2018-07-08T12:40:40.403Z,43.90
2018-07-08T12:43:09.173Z,42.80
2018-07-08T12:45:38.167Z,43.80
2018-07-08T12:48:06.715Z,43.30
2018-07-08T12:50:35.191Z,41.70
2018-07-08T12:53:03.816Z,43.10
2018-07-08T12:55:32.968Z,44.00
2018-07-08T12:58:01.565Z,42.20
2018-07-08T13:00:30.105Z,43.30
2018-07-08T13:02:59.207Z,43.70
2018-07-08T13:05:27.743Z,43.90
2018-07-08T13:51:39.149Z,44.60
2018-07-08T13:54:07.656Z,40.80
2018-07-08T13:56:37.636Z,39.90
2018-07-08T14:01:34.522Z,40.40
2018-07-08T14:04:03.166Z,40.20
2018-07-08T14:06:32.146Z,39.60
2018-07-08T14:09:00.636Z,40.70
2018-07-08T14:11:29.203Z,41.80
2018-07-08T14:13:57.657Z,40.20
2018-07-08T14:16:26.380Z,39.20
2018-07-08T14:18:55.004Z,39.90
2018-07-08T14:21:23.439Z,40.30
2018-07-08T14:23:52.550Z,40.80
2018-07-08T14:26:21.826Z,40.90
2018-07-08T14:28:50.333Z,41.30
2018-07-08T14:31:18.930Z,41.20
2018-07-08T14:33:47.446Z,41.80
2018-07-08T14:36:15.926Z,41.50
2018-07-08T14:38:44.396Z,41.60
2018-07-08T14:41:12.885Z,41.00
2018-07-08T14:48:38.393Z,41.20
2018-07-08T14:51:07.524Z,40.40
2018-07-08T14:58:32.776Z,39.80
2018-07-08T15:01:01.634Z,40.20
2018-07-08T15:03:31.955Z,40.40
2018-07-08T15:06:00.765Z,40.90
2018-07-08T15:08:29.693Z,40.00
2018-07-08T15:10:58.785Z,40.20
2018-07-08T15:13:27.409Z,40.70
2018-07-08T15:15:55.990Z,39.70
2018-07-08T15:18:25.046Z,39.10
2018-07-08T15:20:53.732Z,39.40
2018-07-08T15:23:22.324Z,38.20
2018-07-08T15:25:50.933Z,38.80
2018-07-08T15:28:19.482Z,39.10
2018-07-08T15:30:48.207Z,37.80
2018-07-08T15:33:16.778Z,38.60
2018-07-08T15:35:45.293Z,38.20
2018-07-08T15:38:13.830Z,38.10
2018-07-08T15:42:06.501Z,38.80
2018-07-08T15:44:35.085Z,38.50
2018-07-08T15:47:03.905Z,37.80
2018-07-08T15:49:32.489Z,38.60
2018-07-08T15:52:00.989Z,38.10
2018-07-08T15:54:29.515Z,37.60
2018-07-08T15:56:58.598Z,37.80
2018-07-08T15:59:27.928Z,37.90
2018-07-08T16:01:57.917Z,38.20
2018-07-08T16:04:26.478Z,38.60
2018-07-08T16:06:55.110Z,37.70
2018-07-08T16:09:24.265Z,37.40
2018-07-08T16:11:52.829Z,38.40
2018-07-08T16:14:21.312Z,37.80
2018-07-08T16:16:49.944Z,36.70
2018-07-08T16:19:19.501Z,37.00
2018-07-08T16:21:48.237Z,37.60
2018-07-08T16:24:17.679Z,37.70
2018-07-08T16:26:46.387Z,38.00
2018-07-08T16:29:14.965Z,38.00
2018-07-08T16:31:44.038Z,37.40
2018-07-08T16:34:13.917Z,37.60
2018-07-08T16:36:42.671Z,36.30
2018-07-08T16:39:11.277Z,36.40
2018-07-08T16:41:39.856Z,37.00
2018-07-08T16:44:08.353Z,37.10
2018-07-08T16:46:36.946Z,36.60
2018-07-08T16:49:05.497Z,36.80
2018-07-08T16:51:34.554Z,36.50
2018-07-08T16:54:03.102Z,36.20
2018-07-08T16:56:31.823Z,36.80
2018-07-08T16:59:00.318Z,36.40
2018-07-08T17:01:28.886Z,35.90
2018-07-08T17:03:57.538Z,35.70
2018-07-08T17:06:26.097Z,34.80
2018-07-08T17:11:22.996Z,35.30
2018-07-08T17:13:51.749Z,34.10
2018-07-08T17:16:20.283Z,34.30
2018-07-08T17:18:49.034Z,34.60
2018-07-08T17:21:17.673Z,33.90
2018-07-08T17:23:46.265Z,34.40
2018-07-08T17:26:15.107Z,33.60
2018-07-08T17:28:43.666Z,33.90
2018-07-08T17:31:12.169Z,33.30
2018-07-08T17:33:41.127Z,32.90
2018-07-08T17:38:38.465Z,33.20
2018-07-08T17:41:07.412Z,32.20
2018-07-08T17:43:36.519Z,32.20
2018-07-08T17:46:05.816Z,32.40
2018-07-08T17:48:34.394Z,31.80
2018-07-08T17:51:03.068Z,31.30
2018-07-08T17:55:59.881Z,32.20
2018-07-08T17:58:28.488Z,31.10
2018-07-08T18:00:57.053Z,31.50
2018-07-08T18:03:25.705Z,31.20
2018-07-08T18:05:54.248Z,31.00
2018-07-08T18:08:22.844Z,30.50
2018-07-08T18:10:51.957Z,31.20
2018-07-08T18:13:20.509Z,30.20
2018-07-08T18:15:49.885Z,30.30
2018-07-08T18:18:18.472Z,31.00
2018-07-08T18:20:47.200Z,31.80
2018-07-08T18:23:15.832Z,31.70
2018-07-08T18:25:44.285Z,32.20
2018-07-08T18:30:40.956Z,32.50
2018-07-08T18:33:09.495Z,33.40
2018-07-08T18:35:37.984Z,33.40
2018-07-08T18:38:06.523Z,33.80
2018-07-08T18:40:35.282Z,34.20
2018-07-08T18:43:05.120Z,34.70
2018-07-08T18:45:33.733Z,35.30
2018-07-08T18:48:02.217Z,35.00
2018-07-08T18:50:30.871Z,35.20
2018-07-08T18:53:00.093Z,35.50
2018-07-08T18:55:28.640Z,35.00
2018-07-08T18:57:57.177Z,34.70
2018-07-08T19:00:25.766Z,35.00
2018-07-08T19:02:54.241Z,34.10
2018-07-08T19:05:22.809Z,34.60
2018-07-08T19:07:51.402Z,34.10
2018-07-08T19:10:19.929Z,34.00
2018-07-08T19:12:48.631Z,33.40
2018-07-08T19:15:17.273Z,34.00
2018-07-08T19:17:45.828Z,33.10
2018-07-08T19:20:14.301Z,33.20
2018-07-08T19:22:42.812Z,33.00
2018-07-08T19:25:11.377Z,33.00
2018-07-08T19:27:40.893Z,33.60
2018-07-08T19:30:09.705Z,33.40
2018-07-08T19:32:39.068Z,34.00
2018-07-08T19:35:07.527Z,33.60
2018-07-08T19:37:36.243Z,33.20
2018-07-08T19:40:04.824Z,32.90
2018-07-08T19:42:33.458Z,33.00
2018-07-08T19:45:02.378Z,33.40
2018-07-08T19:47:31.361Z,33.00
2018-07-08T19:49:59.947Z,33.60
2018-07-08T19:52:28.514Z,34.10
2018-07-08T19:54:57.321Z,33.90
2018-07-08T19:57:25.794Z,34.60
2018-07-08T20:02:22.664Z,33.80
2018-07-08T20:04:51.345Z,34.20
2018-07-08T20:07:20.144Z,34.60
2018-07-08T20:22:53.061Z,34.90
2018-07-08T20:25:22.095Z,35.20
2018-07-08T20:27:50.582Z,35.50
2018-07-08T20:30:19.077Z,35.60
2018-07-08T20:32:47.510Z,35.80
2018-07-08T20:35:16.121Z,35.70
2018-07-08T20:37:44.614Z,35.90
2018-07-08T20:40:13.098Z,36.10
2018-07-08T20:42:41.573Z,35.90
2018-07-08T20:45:10.070Z,36.10
2018-07-08T20:47:38.576Z,36.70
2018-07-08T20:50:07.061Z,36.50
2018-07-08T20:52:35.605Z,36.50
2018-07-08T20:55:04.121Z,36.40
2018-07-08T20:57:32.661Z,35.60
2018-07-08T21:00:01.153Z,35.50
2018-07-08T21:02:29.715Z,35.50
2018-07-08T21:04:58.183Z,35.60
2018-07-08T21:07:26.676Z,35.20
2018-07-08T21:09:55.106Z,35.20
2018-07-08T21:12:24.088Z,35.70
2018-07-08T21:14:52.720Z,36.00
2018-07-08T21:17:21.270Z,36.20
2018-07-08T21:19:50.029Z,37.00
2018-07-08T21:22:18.888Z,37.10
2018-07-08T21:24:47.416Z,37.50
2018-07-08T21:27:15.899Z,36.90
2018-07-08T21:29:44.538Z,37.00
2018-07-08T21:32:13.118Z,37.50
2018-07-08T21:34:41.642Z,37.50
2018-07-08T21:37:10.201Z,37.80
2018-07-08T21:39:39.386Z,37.30
2018-07-08T21:42:07.868Z,37.10
2018-07-08T21:44:36.520Z,36.90
2018-07-08T21:47:05.085Z,36.70
2018-07-08T21:49:33.622Z,36.60
2018-07-08T21:52:02.156Z,36.80
2018-07-08T21:54:30.592Z,36.20
2018-07-08T21:56:59.204Z,36.40
2018-07-08T21:59:27.849Z,36.70
2018-07-08T22:01:59.405Z,37.20
2018-07-08T22:04:27.889Z,37.40
2018-07-08T22:07:01.563Z,36.80
2018-07-08T22:09:30.032Z,36.80
2018-07-08T22:11:58.517Z,37.30
2018-07-08T22:14:27.049Z,37.10
2018-07-08T22:16:55.549Z,37.50
2018-07-08T22:19:24.920Z,37.50
2018-07-08T22:21:54.002Z,37.80
2018-07-08T22:24:22.698Z,38.20
2018-07-08T22:26:51.188Z,38.10
2018-07-08T22:29:20.337Z,38.10
2018-07-08T22:31:48.965Z,38.80
2018-07-08T22:34:17.537Z,38.80
2018-07-08T22:36:46.674Z,38.60
2018-07-08T22:39:15.634Z,39.10
2018-07-08T22:41:44.194Z,39.40
2018-07-08T22:44:12.833Z,38.80
2018-07-08T22:49:10.304Z,39.50
2018-07-08T22:51:38.817Z,39.80
2018-07-08T22:54:07.332Z,40.30
2018-07-08T22:56:35.837Z,40.10
2018-07-08T22:59:04.297Z,40.40
2018-07-08T23:01:44.286Z,41.30
2018-07-08T23:04:13.184Z,41.60
2018-07-08T23:06:41.834Z,40.50
2018-07-08T23:09:10.335Z,40.50
2018-07-08T23:11:38.855Z,41.10
2018-07-08T23:14:07.335Z,41.40
2018-07-08T23:16:35.844Z,41.40
2018-07-08T23:19:04.336Z,41.20
2018-07-08T23:21:33.354Z,41.30
2018-07-08T23:24:01.846Z,42.10
2018-07-08T23:26:31.041Z,41.70
2018-07-08T23:28:59.701Z,40.80
2018-07-08T23:31:28.289Z,40.60
2018-07-08T23:33:56.942Z,41.70
2018-07-08T23:36:25.494Z,41.80
2018-07-08T23:38:54.186Z,43.00
2018-07-08T23:41:22.700Z,42.90
2018-07-08T23:43:51.196Z,43.40
2018-07-08T23:46:19.654Z,42.60
2018-07-08T23:48:48.164Z,42.90
2018-07-08T23:51:16.761Z,43.30
2018-07-08T23:53:45.208Z,43.20
2018-07-08T23:56:13.623Z,42.30
2018-07-08T23:58:42.194Z,42.30
